VTSS/HDY METAR and TAF weather

Enter ICAO airport designator
Station Type Date Time Source
VTSS METAR 2021/01/20 21:30 UTC NOAA

VTSS 202130Z 28002KT 9999 FEW020 22/22 Q1010 NOSIG


Station Type Date Time Source
VTSS Decoded METAR 2021/01/20 21:30 UTC NOAA

Hat Yai, Thailand (VTSS) 06-55N 100-26E 35M
Jan 20, 2021 - 04:30 PM EST / 2021.01.20 2130 UTC
Wind: from the W (280 degrees) at 2 MPH (2 KT):0
Visibility: greater than 7 mile(s):0
Sky conditions: mostly clear
Temperature: 71 F (22 C)
Dew Point: 71 F (22 C)
Relative Humidity: 100%
Pressure (altimeter): 29.83 in. Hg (1010 hPa)
ob: VTSS 202130Z 28002KT 9999 FEW020 22/22 Q1010 NOSIG
cycle: 21

Station Type Date Time Source
VTSS TAF 2021/01/20 18:36 UTC NOAA

TAF VTSS 201700Z 2018/2118 33003KT 9999 FEW020
BECMG 2103/2105 06010KT
BECMG 2113/2115 33003KT

Example: see airport list